sensor_id;sensor_type;location;lat;lon;timestamp;temperature;humidity
27276;DHT22;14772;47.398;8.080;2022-09-01T00:01:25;19.40;99.90
27276;DHT22;14772;47.398;8.080;2022-09-01T00:06:35;19.30;99.90
27276;DHT22;14772;47.398;8.080;2022-09-01T00:45:24;19.20;99.90
27276;DHT22;14772;47.398;8.080;2022-09-01T00:50:28;19.10;99.90
27276;DHT22;14772;47.398;8.080;2022-09-01T00:56:09;19.10;99.90
27276;DHT22;14772;47.398;8.080;2022-09-01T01:12:36;19.10;99.90
27276;DHT22;14772;47.398;8.080;2022-09-01T01:18:03;19.00;99.90
27276;DHT22;14772;47.398;8.080;2022-09-01T01:23:26;18.90;99.90
27276;DHT22;14772;47.398;8.080;2022-09-01T01:33:49;18.90;99.90
27276;DHT22;14772;47.398;8.080;2022-09-01T01:44:45;18.90;99.90
27276;DHT22;14772;47.398;8.080;2022-09-01T01:50:12;18.90;99.90
27276;DHT22;14772;47.398;8.080;2022-09-01T01:55:31;18.80;99.90
27276;DHT22;14772;47.398;8.080;2022-09-01T02:00:44;18.70;99.90
27276;DHT22;14772;47.398;8.080;2022-09-01T02:06:14;18.60;99.90
27276;DHT22;14772;47.398;8.080;2022-09-01T02:11:34;18.50;99.90
27276;DHT22;14772;47.398;8.080;2022-09-01T02:16:52;18.60;99.90
27276;DHT22;14772;47.398;8.080;2022-09-01T02:22:05;18.60;99.90
27276;DHT22;14772;47.398;8.080;2022-09-01T02:27:06;18.50;99.90
27276;DHT22;14772;47.398;8.080;2022-09-01T02:37:50;18.60;99.90
27276;DHT22;14772;47.398;8.080;2022-09-01T02:43:14;18.30;99.90
27276;DHT22;14772;47.398;8.080;2022-09-01T02:48:23;18.40;99.90
27276;DHT22;14772;47.398;8.080;2022-09-01T02:59:37;18.30;99.90
27276;DHT22;14772;47.398;8.080;2022-09-01T03:10:40;18.30;99.90
27276;DHT22;14772;47.398;8.080;2022-09-01T03:27:47;18.10;99.90
27276;DHT22;14772;47.398;8.080;2022-09-01T03:33:12;18.20;99.90
27276;DHT22;14772;47.398;8.080;2022-09-01T03:49:07;18.20;99.90
27276;DHT22;14772;47.398;8.080;2022-09-01T05:54:11;18.50;99.90
27276;DHT22;14772;47.398;8.080;2022-09-01T05:59:43;18.40;99.90
27276;DHT22;14772;47.398;8.080;2022-09-01T06:04:43;18.50;99.90
27276;DHT22;14772;47.398;8.080;2022-09-01T06:09:42;18.60;99.90
27276;DHT22;14772;47.398;8.080;2022-09-01T06:14:39;18.70;99.90
27276;DHT22;14772;47.398;8.080;2022-09-01T06:19:37;18.80;99.90
27276;DHT22;14772;47.398;8.080;2022-09-01T06:24:34;18.90;99.90
27276;DHT22;14772;47.398;8.080;2022-09-01T06:29:31;18.90;99.90
27276;DHT22;14772;47.398;8.080;2022-09-01T06:34:29;18.90;99.90
27276;DHT22;14772;47.398;8.080;2022-09-01T06:39:26;18.90;99.90
27276;DHT22;14772;47.398;8.080;2022-09-01T06:44:24;19.00;99.90
27276;DHT22;14772;47.398;8.080;2022-09-01T06:49:21;19.00;99.90
27276;DHT22;14772;47.398;8.080;2022-09-01T06:54:19;19.00;99.90
27276;DHT22;14772;47.398;8.080;2022-09-01T06:59:16;19.00;99.90
27276;DHT22;14772;47.398;8.080;2022-09-01T07:04:13;19.00;99.90
27276;DHT22;14772;47.398;8.080;2022-09-01T07:09:10;19.00;99.90
27276;DHT22;14772;47.398;8.080;2022-09-01T07:14:07;19.00;99.90
27276;DHT22;14772;47.398;8.080;2022-09-01T07:19:04;18.90;99.90
27276;DHT22;14772;47.398;8.080;2022-09-01T07:24:03;19.10;99.90
27276;DHT22;14772;47.398;8.080;2022-09-01T07:29:01;19.20;99.90
27276;DHT22;14772;47.398;8.080;2022-09-01T07:34:00;19.20;99.90
27276;DHT22;14772;47.398;8.080;2022-09-01T07:38:58;19.10;99.90
27276;DHT22;14772;47.398;8.080;2022-09-01T07:43:55;19.10;99.90
27276;DHT22;14772;47.398;8.080;2022-09-01T07:48:53;19.30;99.90
27276;DHT22;14772;47.398;8.080;2022-09-01T07:53:51;19.30;99.90
27276;DHT22;14772;47.398;8.080;2022-09-01T08:04:37;19.20;99.90
27276;DHT22;14772;47.398;8.080;2022-09-01T08:09:36;19.50;99.90
27276;DHT22;14772;47.398;8.080;2022-09-01T08:14:34;19.50;99.90
27276;DHT22;14772;47.398;8.080;2022-09-01T08:19:31;19.60;99.90
27276;DHT22;14772;47.398;8.080;2022-09-01T08:24:28;19.70;99.90
27276;DHT22;14772;47.398;8.080;2022-09-01T08:29:25;19.70;99.90
27276;DHT22;14772;47.398;8.080;2022-09-01T08:34:23;19.90;99.90
27276;DHT22;14772;47.398;8.080;2022-09-01T08:39:21;19.90;99.90
27276;DHT22;14772;47.398;8.080;2022-09-01T08:44:27;19.90;99.90
27276;DHT22;14772;47.398;8.080;2022-09-01T08:49:22;19.90;99.90
27276;DHT22;14772;47.398;8.080;2022-09-01T08:54:23;19.90;99.90
27276;DHT22;14772;47.398;8.080;2022-09-01T08:59:21;19.90;99.90
27276;DHT22;14772;47.398;8.080;2022-09-01T09:04:35;20.10;99.90
27276;DHT22;14772;47.398;8.080;2022-09-01T09:09:36;20.30;99.90
27276;DHT22;14772;47.398;8.080;2022-09-01T09:14:43;20.40;99.90
27276;DHT22;14772;47.398;8.080;2022-09-01T09:19:42;20.30;99.90
27276;DHT22;14772;47.398;8.080;2022-09-01T09:24:43;20.40;99.90
27276;DHT22;14772;47.398;8.080;2022-09-01T09:29:42;20.50;99.90
27276;DHT22;14772;47.398;8.080;2022-09-01T09:34:42;20.60;99.90
27276;DHT22;14772;47.398;8.080;2022-09-01T09:39:39;20.70;99.90
27276;DHT22;14772;47.398;8.080;2022-09-01T09:44:42;20.80;99.90
27276;DHT22;14772;47.398;8.080;2022-09-01T09:49:39;20.90;99.90
27276;DHT22;14772;47.398;8.080;2022-09-01T09:54:38;21.00;99.90
27276;DHT22;14772;47.398;8.080;2022-09-01T10:21:48;21.50;99.90
27276;DHT22;14772;47.398;8.080;2022-09-01T10:26:48;21.60;99.90
27276;DHT22;14772;47.398;8.080;2022-09-01T10:31:46;21.70;99.90
27276;DHT22;14772;47.398;8.080;2022-09-01T10:36:45;21.80;99.90
27276;DHT22;14772;47.398;8.080;2022-09-01T10:41:56;21.70;99.90
27276;DHT22;14772;47.398;8.080;2022-09-01T10:46:53;21.80;99.90
27276;DHT22;14772;47.398;8.080;2022-09-01T10:51:50;21.80;99.90
27276;DHT22;14772;47.398;8.080;2022-09-01T10:56:49;21.80;99.90
27276;DHT22;14772;47.398;8.080;2022-09-01T11:02:09;21.80;99.90
27276;DHT22;14772;47.398;8.080;2022-09-01T11:07:17;21.90;99.90
27276;DHT22;14772;47.398;8.080;2022-09-01T11:12:47;21.90;99.90
27276;DHT22;14772;47.398;8.080;2022-09-01T11:17:55;22.20;99.90
27276;DHT22;14772;47.398;8.080;2022-09-01T11:23:00;22.20;99.90
27276;DHT22;14772;47.398;8.080;2022-09-01T11:28:02;22.30;99.90
27276;DHT22;14772;47.398;8.080;2022-09-01T11:33:05;22.30;99.90
27276;DHT22;14772;47.398;8.080;2022-09-01T11:38:04;22.50;99.90
27276;DHT22;14772;47.398;8.080;2022-09-01T11:43:05;22.40;99.90
27276;DHT22;14772;47.398;8.080;2022-09-01T11:48:05;22.50;99.90
27276;DHT22;14772;47.398;8.080;2022-09-01T11:53:05;22.50;99.90
27276;DHT22;14772;47.398;8.080;2022-09-01T11:58:03;22.80;99.90
27276;DHT22;14772;47.398;8.080;2022-09-01T12:03:00;22.90;99.90
27276;DHT22;14772;47.398;8.080;2022-09-01T12:07:59;22.90;99.90
27276;DHT22;14772;47.398;8.080;2022-09-01T12:13:03;23.00;99.90
27276;DHT22;14772;47.398;8.080;2022-09-01T12:18:13;23.00;99.90
27276;DHT22;14772;47.398;8.080;2022-09-01T12:23:22;23.00;99.90
27276;DHT22;14772;47.398;8.080;2022-09-01T12:28:18;23.10;99.90
27276;DHT22;14772;47.398;8.080;2022-09-01T12:33:17;23.00;99.90
27276;DHT22;14772;47.398;8.080;2022-09-01T12:38:27;23.20;99.90
27276;DHT22;14772;47.398;8.080;2022-09-01T12:43:29;23.30;99.90
27276;DHT22;14772;47.398;8.080;2022-09-01T12:48:29;23.20;99.90
27276;DHT22;14772;47.398;8.080;2022-09-01T12:53:29;23.10;99.90
27276;DHT22;14772;47.398;8.080;2022-09-01T12:58:28;23.20;99.90
27276;DHT22;14772;47.398;8.080;2022-09-01T13:03:29;23.20;99.90
27276;DHT22;14772;47.398;8.080;2022-09-01T13:08:30;23.30;99.90
27276;DHT22;14772;47.398;8.080;2022-09-01T13:13:28;23.60;99.90
27276;DHT22;14772;47.398;8.080;2022-09-01T13:18:26;23.70;99.90
27276;DHT22;14772;47.398;8.080;2022-09-01T13:23:27;23.70;99.90
27276;DHT22;14772;47.398;8.080;2022-09-01T13:28:25;23.60;99.90
27276;DHT22;14772;47.398;8.080;2022-09-01T13:33:22;23.80;99.90
27276;DHT22;14772;47.398;8.080;2022-09-01T13:38:20;23.90;99.90
27276;DHT22;14772;47.398;8.080;2022-09-01T13:43:19;23.90;99.90
27276;DHT22;14772;47.398;8.080;2022-09-01T13:48:17;24.20;99.90
27276;DHT22;14772;47.398;8.080;2022-09-01T13:53:14;24.10;99.60
27276;DHT22;14772;47.398;8.080;2022-09-01T13:58:12;24.10;98.80
27276;DHT22;14772;47.398;8.080;2022-09-01T14:03:12;24.10;98.50
27276;DHT22;14772;47.398;8.080;2022-09-01T14:08:10;24.10;99.40
27276;DHT22;14772;47.398;8.080;2022-09-01T14:13:08;24.30;98.50
27276;DHT22;14772;47.398;8.080;2022-09-01T14:18:05;24.10;98.50
27276;DHT22;14772;47.398;8.080;2022-09-01T14:23:03;24.10;99.00
27276;DHT22;14772;47.398;8.080;2022-09-01T14:28:00;24.20;98.00
27276;DHT22;14772;47.398;8.080;2022-09-01T14:32:58;24.50;97.60
27276;DHT22;14772;47.398;8.080;2022-09-01T14:37:56;24.60;97.50
27276;DHT22;14772;47.398;8.080;2022-09-01T14:42:53;25.00;97.70
27276;DHT22;14772;47.398;8.080;2022-09-01T14:47:53;25.20;96.70
27276;DHT22;14772;47.398;8.080;2022-09-01T14:52:53;25.30;95.80
27276;DHT22;14772;47.398;8.080;2022-09-01T14:57:51;25.00;96.90
27276;DHT22;14772;47.398;8.080;2022-09-01T15:02:48;25.00;96.90
27276;DHT22;14772;47.398;8.080;2022-09-01T15:07:45;25.00;97.60
27276;DHT22;14772;47.398;8.080;2022-09-01T15:12:42;24.90;97.30
27276;DHT22;14772;47.398;8.080;2022-09-01T15:17:40;24.80;98.00
27276;DHT22;14772;47.398;8.080;2022-09-01T15:22:37;25.20;96.80
27276;DHT22;14772;47.398;8.080;2022-09-01T15:27:34;25.20;95.60
27276;DHT22;14772;47.398;8.080;2022-09-01T15:32:31;25.30;96.00
27276;DHT22;14772;47.398;8.080;2022-09-01T15:37:28;25.60;96.50
27276;DHT22;14772;47.398;8.080;2022-09-01T15:42:26;25.80;95.10
27276;DHT22;14772;47.398;8.080;2022-09-01T15:47:23;25.70;95.60
27276;DHT22;14772;47.398;8.080;2022-09-01T15:52:20;25.50;96.00
27276;DHT22;14772;47.398;8.080;2022-09-01T15:57:17;25.60;96.10
27276;DHT22;14772;47.398;8.080;2022-09-01T16:02:14;25.80;95.80
27276;DHT22;14772;47.398;8.080;2022-09-01T16:07:12;26.00;95.00
27276;DHT22;14772;47.398;8.080;2022-09-01T16:12:09;26.00;94.40
27276;DHT22;14772;47.398;8.080;2022-09-01T16:17:09;26.20;94.00
27276;DHT22;14772;47.398;8.080;2022-09-01T16:22:13;25.90;94.40
27276;DHT22;14772;47.398;8.080;2022-09-01T16:27:15;25.70;95.10
27276;DHT22;14772;47.398;8.080;2022-09-01T16:32:13;25.80;95.10
27276;DHT22;14772;47.398;8.080;2022-09-01T16:37:15;26.10;94.90
27276;DHT22;14772;47.398;8.080;2022-09-01T16:42:20;26.00;93.80
27276;DHT22;14772;47.398;8.080;2022-09-01T16:47:30;25.80;93.80
27276;DHT22;14772;47.398;8.080;2022-09-01T16:52:29;25.80;93.00
27276;DHT22;14772;47.398;8.080;2022-09-01T16:57:32;25.80;93.10
27276;DHT22;14772;47.398;8.080;2022-09-01T17:02:34;25.50;93.40
27276;DHT22;14772;47.398;8.080;2022-09-01T17:07:36;25.40;93.80
27276;DHT22;14772;47.398;8.080;2022-09-01T17:12:37;25.10;94.50
27276;DHT22;14772;47.398;8.080;2022-09-01T17:17:38;24.90;95.20
27276;DHT22;14772;47.398;8.080;2022-09-01T17:22:37;24.70;95.40
27276;DHT22;14772;47.398;8.080;2022-09-01T17:27:37;24.70;95.80
27276;DHT22;14772;47.398;8.080;2022-09-01T17:32:54;24.50;95.70
27276;DHT22;14772;47.398;8.080;2022-09-01T17:38:03;24.40;96.20
27276;DHT22;14772;47.398;8.080;2022-09-01T17:43:04;24.20;96.70
27276;DHT22;14772;47.398;8.080;2022-09-01T17:48:06;24.10;97.10
27276;DHT22;14772;47.398;8.080;2022-09-01T17:53:06;23.80;97.80
27276;DHT22;14772;47.398;8.080;2022-09-01T17:58:08;23.70;98.10
27276;DHT22;14772;47.398;8.080;2022-09-01T18:03:15;23.60;98.60
27276;DHT22;14772;47.398;8.080;2022-09-01T18:08:26;23.50;98.80
27276;DHT22;14772;47.398;8.080;2022-09-01T18:13:27;23.40;99.20
27276;DHT22;14772;47.398;8.080;2022-09-01T18:18:29;23.20;99.70
27276;DHT22;14772;47.398;8.080;2022-09-01T18:23:28;23.00;99.90
27276;DHT22;14772;47.398;8.080;2022-09-01T18:28:27;22.90;99.90
27276;DHT22;14772;47.398;8.080;2022-09-01T18:33:26;22.80;99.90
27276;DHT22;14772;47.398;8.080;2022-09-01T18:38:33;22.70;99.90
27276;DHT22;14772;47.398;8.080;2022-09-01T18:43:35;22.60;99.90
27276;DHT22;14772;47.398;8.080;2022-09-01T18:48:39;22.40;99.90
27276;DHT22;14772;47.398;8.080;2022-09-01T18:53:42;22.30;99.90
27276;DHT22;14772;47.398;8.080;2022-09-01T18:58:56;22.10;99.90
27276;DHT22;14772;47.398;8.080;2022-09-01T19:03:58;22.00;99.90
27276;DHT22;14772;47.398;8.080;2022-09-01T19:09:03;22.00;99.90
27276;DHT22;14772;47.398;8.080;2022-09-01T19:14:07;21.90;99.90
27276;DHT22;14772;47.398;8.080;2022-09-01T19:19:10;21.80;99.90
27276;DHT22;14772;47.398;8.080;2022-09-01T19:52:47;21.10;99.90
27276;DHT22;14772;47.398;8.080;2022-09-01T20:03:19;20.80;99.90
27276;DHT22;14772;47.398;8.080;2022-09-01T20:14:04;20.80;99.90
27276;DHT22;14772;47.398;8.080;2022-09-01T20:19:06;20.70;99.90
27276;DHT22;14772;47.398;8.080;2022-09-01T20:24:07;20.70;99.90
27276;DHT22;14772;47.398;8.080;2022-09-01T20:29:10;20.60;99.90
27276;DHT22;14772;47.398;8.080;2022-09-01T20:34:11;20.50;99.90
27276;DHT22;14772;47.398;8.080;2022-09-01T20:39:13;20.60;99.90
27276;DHT22;14772;47.398;8.080;2022-09-01T20:50:20;20.40;99.90
27276;DHT22;14772;47.398;8.080;2022-09-01T20:55:54;20.40;99.90
27276;DHT22;14772;47.398;8.080;2022-09-01T21:01:34;20.30;99.90
27276;DHT22;14772;47.398;8.080;2022-09-01T21:06:47;20.20;99.90
27276;DHT22;14772;47.398;8.080;2022-09-01T22:16:13;19.50;99.90
